^^
Station Historical Data
Daily Summary for May 16, 2017 Units:  Both    English   Metric
« Previous Day
Next Day »
Daily Weekly Monthly Yearly Custom
  High: Low: Average:
Temperature: 74.5 °F /  23.6 °C 41.7 °F /  5.4 °C 57.7 °F /  14.3 °C
Dew Point: 37.2 °F /  2.9 °C 14.5 °F /  -9.7 °C 27.4 °F /  -2.6 °C
Humidity: 69% 11% 36%
Wind Speed: 6.0mph /  9.7km/h - 0.6mph /  1km/h
Wind Gust: 11.0mph /  17.7km/h - -
Wind- - South
Pressure: 30.17 in /  1021.6 hPa 30.06 in /  1017.8 hPa -
Precipitation: 0.00 in /  0 mm    
Historical Graphs
 
 
Tabular Data for May 16, 2017
Time Temperature Dew Point Pressure Wind Wind Speed Wind Gust Humidity Rainfall Rate (Hourly) solar Conditions
00:05 49.3 °F /  9.6 °C 25.3 °F /  -3.7 °C 30.12in /  1019.9hPa Calm   1.0mph /  1.6km/h 39% 0.00in /  0mm 0.0 W/m2
00:11 49.3 °F /  9.6 °C 25.3 °F /  -3.7 °C 30.12in /  1019.9hPa Calm   1.0mph /  1.6km/h 39% 0.00in /  0mm 0.0 W/m2
00:26 49.3 °F /  9.6 °C 26.1 °F /  -3.3 °C 30.13in /  1020.2hPa ENE 0.9mph /  1.4km/h 2.0mph /  3.2km/h 40% 0.00in /  0mm 0.0 W/m2
00:31 49.3 °F /  9.6 °C 26.6 °F /  -3 °C 30.13in /  1020.2hPa Calm   1.0mph /  1.6km/h 41% 0.00in /  0mm 0.0 W/m2
00:37 49.3 °F /  9.6 °C 26.6 °F /  -3 °C 30.13in /  1020.2hPa Calm   1.0mph /  1.6km/h 41% 0.00in /  0mm 0.0 W/m2
00:44 49.3 °F /  9.6 °C 27.1 °F /  -2.7 °C 30.13in /  1020.2hPa Calm   2.0mph /  3.2km/h 42% 0.00in /  0mm 0.0 W/m2
00:50 49.3 °F /  9.6 °C 27.1 °F /  -2.7 °C 30.13in /  1020.2hPa Calm   1.0mph /  1.6km/h 42% 0.00in /  0mm 0.0 W/m2
00:57 49.3 °F /  9.6 °C 26.6 °F /  -3 °C 30.12in /  1019.9hPa Calm     41% 0.00in /  0mm 0.0 W/m2
01:03 49.3 °F /  9.6 °C 27.1 °F /  -2.7 °C 30.12in /  1019.9hPa Calm     42% 0.00in /  0mm 0.0 W/m2
01:10 49.3 °F /  9.6 °C 27.1 °F /  -2.7 °C 30.12in /  1019.9hPa Calm   2.0mph /  3.2km/h 42% 0.00in /  0mm 0.0 W/m2
01:16 49.3 °F /  9.6 °C 27.1 °F /  -2.7 °C 30.12in /  1019.9hPa Calm     42% 0.00in /  0mm 0.0 W/m2
01:22 49.3 °F /  9.6 °C 27.7 °F /  -2.4 °C 30.12in /  1019.9hPa Calm     43% 0.00in /  0mm 0.0 W/m2
01:28 49.3 °F /  9.6 °C 27.7 °F /  -2.4 °C 30.12in /  1019.9hPa Calm     43% 0.00in /  0mm 0.0 W/m2
01:34 49.3 °F /  9.6 °C 28.2 °F /  -2.1 °C 30.12in /  1019.9hPa Calm   1.0mph /  1.6km/h 44% 0.00in /  0mm 0.0 W/m2
01:40 49.1 °F /  9.5 °C 28.0 °F /  -2.2 °C 30.12in /  1019.9hPa Calm   2.0mph /  3.2km/h 44% 0.00in /  0mm 0.0 W/m2
01:46 49.1 °F /  9.5 °C 28.8 °F /  -1.8 °C 30.12in /  1019.9hPa Calm     45% 0.00in /  0mm 0.0 W/m2
01:53 48.9 °F /  9.4 °C 28.6 °F /  -1.9 °C 30.12in /  1019.9hPa Calm   1.0mph /  1.6km/h 45% 0.00in /  0mm 0.0 W/m2
01:59 48.9 °F /  9.4 °C 28.6 °F /  -1.9 °C 30.11in /  1019.5hPa Calm   1.0mph /  1.6km/h 45% 0.00in /  0mm 0.0 W/m2
02:05 48.9 °F /  9.4 °C 29.1 °F /  -1.6 °C 30.12in /  1019.9hPa Calm     46% 0.00in /  0mm 0.0 W/m2
02:11 48.9 °F /  9.4 °C 29.1 °F /  -1.6 °C 30.12in /  1019.9hPa Calm   2.0mph /  3.2km/h 46% 0.00in /  0mm 0.0 W/m2
02:17 49.1 °F /  9.5 °C 29.1 °F /  -1.6 °C 30.12in /  1019.9hPa Calm   4.0mph /  6.4km/h 46% 0.00in /  0mm 0.0 W/m2
02:23 49.1 °F /  9.5 °C 29.1 °F /  -1.6 °C 30.12in /  1019.9hPa Calm   1.0mph /  1.6km/h 46% 0.00in /  0mm 0.0 W/m2
02:29 48.9 °F /  9.4 °C 29.1 °F /  -1.6 °C 30.12in /  1019.9hPa Calm   2.0mph /  3.2km/h 46% 0.00in /  0mm 0.0 W/m2
02:36 48.9 °F /  9.4 °C 29.1 °F /  -1.6 °C 30.11in /  1019.5hPa Calm   1.0mph /  1.6km/h 46% 0.00in /  0mm 0.0 W/m2
02:42 48.7 °F /  9.3 °C 29.5 °F /  -1.4 °C 30.12in /  1019.9hPa Calm     47% 0.00in /  0mm 0.0 W/m2
02:48 48.6 °F /  9.2 °C 29.8 °F /  -1.2 °C 30.12in /  1019.9hPa Calm     48% 0.00in /  0mm 0.0 W/m2
02:54 48.4 °F /  9.1 °C 30.0 °F /  -1.1 °C 30.11in /  1019.5hPa Calm     49% 0.00in /  0mm 0.0 W/m2
03:00 48.2 °F /  9 °C 30.0 °F /  -1.1 °C 30.11in /  1019.5hPa Calm   1.0mph /  1.6km/h 49% 0.00in /  0mm 0.0 W/m2
03:06 48.0 °F /  8.9 °C 29.8 °F /  -1.2 °C 30.11in /  1019.5hPa Calm     49% 0.00in /  0mm 0.0 W/m2
03:12 48.0 °F /  8.9 °C 29.8 °F /  -1.2 °C 30.10in /  1019.2hPa Calm     49% 0.00in /  0mm 0.0 W/m2
03:18 47.8 °F /  8.8 °C 30.0 °F /  -1.1 °C 30.11in /  1019.5hPa Calm     50% 0.00in /  0mm 0.0 W/m2
03:25 47.7 °F /  8.7 °C 30.0 °F /  -1.1 °C 30.10in /  1019.2hPa Calm     50% 0.00in /  0mm 0.0 W/m2
03:31 47.5 °F /  8.6 °C 30.2 °F /  -1 °C 30.10in /  1019.2hPa Calm     51% 0.00in /  0mm 0.0 W/m2
03:37 47.5 °F /  8.6 °C 30.7 °F /  -0.7 °C 30.10in /  1019.2hPa Calm     52% 0.00in /  0mm 0.0 W/m2
03:43 47.1 °F /  8.4 °C 30.4 °F /  -0.9 °C 30.10in /  1019.2hPa Calm     52% 0.00in /  0mm 0.0 W/m2
03:49 47.1 °F /  8.4 °C 30.9 °F /  -0.6 °C 30.10in /  1019.2hPa Calm     53% 0.00in /  0mm 0.0 W/m2
03:55 46.8 °F /  8.2 °C 30.9 °F /  -0.6 °C 30.10in /  1019.2hPa Calm     54% 0.00in /  0mm 0.0 W/m2
04:01 46.6 °F /  8.1 °C 30.7 °F /  -0.7 °C 30.10in /  1019.2hPa Calm     54% 0.00in /  0mm 0.0 W/m2
04:08 46.2 °F /  7.9 °C 30.9 °F /  -0.6 °C 30.10in /  1019.2hPa Calm     55% 0.00in /  0mm 0.0 W/m2
04:14 46.0 °F /  7.8 °C 31.3 °F /  -0.4 °C 30.10in /  1019.2hPa Calm     56% 0.00in /  0mm 0.0 W/m2
04:20 45.7 °F /  7.6 °C 30.9 °F /  -0.6 °C 30.09in /  1018.8hPa Calm     56% 0.00in /  0mm 0.0 W/m2
04:26 45.3 °F /  7.4 °C 30.9 °F /  -0.6 °C 30.09in /  1018.8hPa Calm     57% 0.00in /  0mm 0.0 W/m2
04:32 45.1 °F /  7.3 °C 30.7 °F /  -0.7 °C 30.09in /  1018.8hPa Calm   1.0mph /  1.6km/h 57% 0.00in /  0mm 0.0 W/m2
04:38 45.1 °F /  7.3 °C 30.7 °F /  -0.7 °C 30.10in /  1019.2hPa Calm   1.0mph /  1.6km/h 57% 0.00in /  0mm 0.0 W/m2
04:44 45.3 °F /  7.4 °C 30.9 °F /  -0.6 °C 30.10in /  1019.2hPa Calm     57% 0.00in /  0mm 0.0 W/m2
04:51 45.5 °F /  7.5 °C 31.6 °F /  -0.2 °C 30.10in /  1019.2hPa Calm     58% 0.00in /  0mm 0.0 W/m2
04:57 45.3 °F /  7.4 °C 31.5 °F /  -0.3 °C 30.10in /  1019.2hPa Calm     58% 0.00in /  0mm 0.0 W/m2
05:03 45.1 °F /  7.3 °C 31.6 °F /  -0.2 °C 30.10in /  1019.2hPa Calm     59% 0.00in /  0mm 0.0 W/m2
05:09 45.0 °F /  7.2 °C 32.0 °F /  0 °C 30.10in /  1019.2hPa Calm     60% 0.00in /  0mm 0.0 W/m2
05:15 44.8 °F /  7.1 °C 31.8 °F /  -0.1 °C 30.10in /  1019.2hPa Calm     60% 0.00in /  0mm 0.0 W/m2
05:21 44.4 °F /  6.9 °C 31.8 °F /  -0.1 °C 30.11in /  1019.5hPa Calm     61% 0.00in /  0mm 0.0 W/m2
05:27 44.1 °F /  6.7 °C 31.5 °F /  -0.3 °C 30.11in /  1019.5hPa Calm     61% 0.00in /  0mm 0.0 W/m2
05:33 43.9 °F /  6.6 °C 31.6 °F /  -0.2 °C 30.11in /  1019.5hPa Calm     62% 0.00in /  0mm 0.0 W/m2
05:40 43.5 °F /  6.4 °C 31.3 °F /  -0.4 °C 30.11in /  1019.5hPa Calm     62% 0.00in /  0mm 0.0 W/m2
05:46 43.2 °F /  6.2 °C 31.5 °F /  -0.3 °C 30.12in /  1019.9hPa Calm     63% 0.00in /  0mm 0.0 W/m2
05:52 43.0 °F /  6.1 °C 32.0 °F /  0 °C 30.12in /  1019.9hPa Calm     65% 0.00in /  0mm 0.0 W/m2
05:58 42.6 °F /  5.9 °C 31.6 °F /  -0.2 °C 30.12in /  1019.9hPa Calm     65% 0.00in /  0mm 0.0 W/m2
06:04 42.4 °F /  5.8 °C 31.5 °F /  -0.3 °C 30.12in /  1019.9hPa Calm     65% 0.00in /  0mm 0.0 W/m2
06:10 42.3 °F /  5.7 °C 32.2 °F /  0.1 °C 30.12in /  1019.9hPa Calm     67% 0.00in /  0mm 0.0 W/m2
06:16 42.3 °F /  5.7 °C 31.6 °F /  -0.2 °C 30.12in /  1019.9hPa Calm     66% 0.00in /  0mm 0.0 W/m2
06:22 42.1 °F /  5.6 °C 31.5 °F /  -0.3 °C 30.12in /  1019.9hPa Calm     66% 0.00in /  0mm 5.0 W/m2
06:28 41.7 °F /  5.4 °C 31.6 °F /  -0.2 °C 30.12in /  1019.9hPa Calm     67% 0.00in /  0mm 7.0 W/m2
06:33 41.7 °F /  5.4 °C 32.0 °F /  0 °C 30.12in /  1019.9hPa Calm     68% 0.00in /  0mm 9.0 W/m2
06:39 41.7 °F /  5.4 °C 32.4 °F /  0.2 °C 30.12in /  1019.9hPa Calm     69% 0.00in /  0mm 11.0 W/m2
06:46 42.1 °F /  5.6 °C 32.7 °F /  0.4 °C 30.12in /  1019.9hPa Calm     69% 0.00in /  0mm 12.0 W/m2
06:52 42.4 °F /  5.8 °C 32.7 °F /  0.4 °C 30.13in /  1020.2hPa Calm     68% 0.00in /  0mm 14.0 W/m2
06:57 43.2 °F /  6.2 °C 32.9 °F /  0.5 °C 30.13in /  1020.2hPa Calm     67% 0.00in /  0mm 16.0 W/m2
07:03 43.2 °F /  6.2 °C 32.9 °F /  0.5 °C 30.13in /  1020.2hPa Calm     67% 0.00in /  0mm 16.0 W/m2
07:09 43.3 °F /  6.3 °C 33.1 °F /  0.6 °C 30.14in /  1020.5hPa Calm     67% 0.00in /  0mm 18.0 W/m2
07:15 43.5 °F /  6.4 °C 34.0 °F /  1.1 °C 30.14in /  1020.5hPa Calm     69% 0.00in /  0mm 19.0 W/m2
07:21 43.7 °F /  6.5 °C 34.2 °F /  1.2 °C 30.14in /  1020.5hPa Calm     69% 0.00in /  0mm 21.0 W/m2
07:28 44.1 °F /  6.7 °C 34.5 °F /  1.4 °C 30.14in /  1020.5hPa Calm     69% 0.00in /  0mm 21.0 W/m2
07:34 45.0 °F /  7.2 °C 35.1 °F /  1.7 °C 30.14in /  1020.5hPa Calm     68% 0.00in /  0mm 23.0 W/m2
07:40 45.7 °F /  7.6 °C 35.1 °F /  1.7 °C 30.14in /  1020.5hPa Calm     66% 0.00in /  0mm 23.0 W/m2
07:46 46.6 °F /  8.1 °C 35.8 °F /  2.1 °C 30.14in /  1020.5hPa Calm     66% 0.00in /  0mm 25.0 W/m2
07:52 47.3 °F /  8.5 °C 35.8 °F /  2.1 °C 30.15in /  1020.9hPa Calm     64% 0.00in /  0mm 25.0 W/m2
07:58 48.0 °F /  8.9 °C 36.0 °F /  2.2 °C 30.15in /  1020.9hPa Calm     63% 0.00in /  0mm 26.0 W/m2
08:05 49.1 °F /  9.5 °C 36.7 °F /  2.6 °C 30.15in /  1020.9hPa Calm   1.0mph /  1.6km/h 62% 0.00in /  0mm 28.0 W/m2
08:11 50.7 °F /  10.4 °C 36.9 °F /  2.7 °C 30.15in /  1020.9hPa Calm   1.0mph /  1.6km/h 59% 0.00in /  0mm 387.0 W/m2
08:17 53.4 °F /  11.9 °C 37.2 °F /  2.9 °C 30.15in /  1020.9hPa NE 2.9mph /  4.7km/h 4.0mph /  6.4km/h 54% 0.00in /  0mm 408.0 W/m2
08:23 56.5 °F /  13.6 °C 37.0 °F /  2.8 °C 30.15in /  1020.9hPa Calm   3.0mph /  4.8km/h 48% 0.00in /  0mm 427.0 W/m2
08:29 58.5 °F /  14.7 °C 36.0 °F /  2.2 °C 30.16in /  1021.2hPa SE 0.9mph /  1.4km/h 1.0mph /  1.6km/h 43% 0.00in /  0mm 446.0 W/m2
08:35 60.3 °F /  15.7 °C 35.2 °F /  1.8 °C 30.16in /  1021.2hPa Calm   1.0mph /  1.6km/h 39% 0.00in /  0mm 466.0 W/m2
08:41 61.5 °F /  16.4 °C 35.1 °F /  1.7 °C 30.16in /  1021.2hPa NNE 0.9mph /  1.4km/h 3.0mph /  4.8km/h 37% 0.00in /  0mm 489.0 W/m2
08:48 63.0 °F /  17.2 °C 34.9 °F /  1.6 °C 30.16in /  1021.2hPa NW 2.0mph /  3.2km/h 3.0mph /  4.8km/h 35% 0.00in /  0mm 506.0 W/m2
08:54 64.0 °F /  17.8 °C 35.1 °F /  1.7 °C 30.16in /  1021.2hPa NNW 2.0mph /  3.2km/h 2.0mph /  3.2km/h 34% 0.00in /  0mm 524.0 W/m2
09:00 64.9 °F /  18.3 °C 36.0 °F /  2.2 °C 30.16in /  1021.2hPa North 4.0mph /  6.4km/h 4.0mph /  6.4km/h 34% 0.00in /  0mm 540.0 W/m2
09:06 65.5 °F /  18.6 °C 34.9 °F /  1.6 °C 30.16in /  1021.2hPa North 2.0mph /  3.2km/h 4.0mph /  6.4km/h 32% 0.00in /  0mm 561.0 W/m2
09:12 66.2 °F /  19 °C 34.7 °F /  1.5 °C 30.16in /  1021.2hPa NNW 2.0mph /  3.2km/h 2.0mph /  3.2km/h 31% 0.00in /  0mm 577.0 W/m2
09:18 66.7 °F /  19.3 °C 35.1 °F /  1.7 °C 30.17in /  1021.6hPa Calm   1.0mph /  1.6km/h 31% 0.00in /  0mm 591.0 W/m2
09:24 67.5 °F /  19.7 °C 34.2 °F /  1.2 °C 30.17in /  1021.6hPa North 0.9mph /  1.4km/h 5.0mph /  8km/h 29% 0.00in /  0mm 606.0 W/m2
09:31 68.4 °F /  20.2 °C 34.0 °F /  1.1 °C 30.16in /  1021.2hPa Calm   3.0mph /  4.8km/h 28% 0.00in /  0mm 619.0 W/m2
09:37 68.0 °F /  20 °C 32.7 °F /  0.4 °C 30.16in /  1021.2hPa Calm     27% 0.00in /  0mm 631.0 W/m2
09:43 68.0 °F /  20 °C 33.6 °F /  0.9 °C 30.16in /  1021.2hPa NW 4.0mph /  6.4km/h 5.0mph /  8km/h 28% 0.00in /  0mm 643.0 W/m2
09:49 68.7 °F /  20.4 °C 33.4 °F /  0.8 °C 30.16in /  1021.2hPa NW 0.9mph /  1.4km/h 4.0mph /  6.4km/h 27% 0.00in /  0mm 654.0 W/m2
09:55 69.4 °F /  20.8 °C 33.1 °F /  0.6 °C 30.16in /  1021.2hPa Calm   1.0mph /  1.6km/h 26% 0.00in /  0mm 666.0 W/m2
10:01 70.0 °F /  21.1 °C 33.4 °F /  0.8 °C 30.16in /  1021.2hPa NNE 0.9mph /  1.4km/h 3.0mph /  4.8km/h 26% 0.00in /  0mm 673.0 W/m2
10:07 70.3 °F /  21.3 °C 32.9 °F /  0.5 °C 30.16in /  1021.2hPa NNW 2.0mph /  3.2km/h 6.0mph /  9.7km/h 25% 0.00in /  0mm 684.0 W/m2
10:13 70.5 °F /  21.4 °C 34.9 °F /  1.6 °C 30.16in /  1021.2hPa Calm     27% 0.00in /  0mm 691.0 W/m2
10:19 70.5 °F /  21.4 °C 34.9 °F /  1.6 °C 30.16in /  1021.2hPa Calm   3.0mph /  4.8km/h 27% 0.00in /  0mm 708.0 W/m2
10:26 70.3 °F /  21.3 °C 18.9 °F /  -7.3 °C 30.15in /  1020.9hPa SW 0.9mph /  1.4km/h 2.0mph /  3.2km/h 14% 0.00in /  0mm 722.0 W/m2
10:32 69.8 °F /  21 °C 20.1 °F /  -6.6 °C 30.15in /  1020.9hPa SSE 4.0mph /  6.4km/h 4.0mph /  6.4km/h 15% 0.00in /  0mm 729.0 W/m2
10:38 70.2 °F /  21.2 °C 21.9 °F /  -5.6 °C 30.15in /  1020.9hPa SSW 2.0mph /  3.2km/h 2.0mph /  3.2km/h 16% 0.00in /  0mm 740.0 W/m2
10:44 70.2 °F /  21.2 °C 21.9 °F /  -5.6 °C 30.15in /  1020.9hPa SE 0.9mph /  1.4km/h 5.0mph /  8km/h 16% 0.00in /  0mm 742.0 W/m2
10:50 70.3 °F /  21.3 °C 20.5 °F /  -6.4 °C 30.15in /  1020.9hPa SE 4.0mph /  6.4km/h 5.0mph /  8km/h 15% 0.00in /  0mm 751.0 W/m2
10:56 70.9 °F /  21.6 °C 19.2 °F /  -7.1 °C 30.15in /  1020.9hPa South 0.9mph /  1.4km/h 3.0mph /  4.8km/h 14% 0.00in /  0mm 759.0 W/m2
11:02 71.1 °F /  21.7 °C 21.0 °F /  -6.1 °C 30.14in /  1020.5hPa SSE 0.9mph /  1.4km/h 4.0mph /  6.4km/h 15% 0.00in /  0mm 761.0 W/m2
11:08 71.4 °F /  21.9 °C 18.0 °F /  -7.8 °C 30.14in /  1020.5hPa WSW 0.9mph /  1.4km/h 2.0mph /  3.2km/h 13% 0.00in /  0mm 765.0 W/m2
11:15 71.6 °F /  22 °C 23.0 °F /  -5 °C 30.14in /  1020.5hPa ESE 6.0mph /  9.7km/h 6.0mph /  9.7km/h 16% 0.00in /  0mm 768.0 W/m2
11:21 71.8 °F /  22.1 °C 21.6 °F /  -5.8 °C 30.14in /  1020.5hPa SE 4.0mph /  6.4km/h 7.0mph /  11.3km/h 15% 0.00in /  0mm 773.0 W/m2
11:27 72.1 °F /  22.3 °C 20.3 °F /  -6.5 °C 30.14in /  1020.5hPa ESE 2.0mph /  3.2km/h 8.0mph /  12.9km/h 14% 0.00in /  0mm 775.0 W/m2
11:33 72.0 °F /  22.2 °C 14.5 °F /  -9.7 °C 30.14in /  1020.5hPa NNW 0.9mph /  1.4km/h 7.0mph /  11.3km/h 11% 0.00in /  0mm 780.0 W/m2
11:39 72.1 °F /  22.3 °C 16.7 °F /  -8.5 °C 30.13in /  1020.2hPa SSE 0.9mph /  1.4km/h 4.0mph /  6.4km/h 12% 0.00in /  0mm 780.0 W/m2
11:45 72.0 °F /  22.2 °C 20.1 °F /  -6.6 °C 30.13in /  1020.2hPa East 2.0mph /  3.2km/h 5.0mph /  8km/h 14% 0.00in /  0mm 777.0 W/m2
11:51 71.8 °F /  22.1 °C 18.3 °F /  -7.6 °C 30.13in /  1020.2hPa South 2.0mph /  3.2km/h 7.0mph /  11.3km/h 13% 0.00in /  0mm 775.0 W/m2
12:04 72.1 °F /  22.3 °C 16.7 °F /  -8.5 °C 30.12in /  1019.9hPa NE 2.0mph /  3.2km/h 5.0mph /  8km/h 12% 0.00in /  0mm 777.0 W/m2
12:10 72.7 °F /  22.6 °C 17.1 °F /  -8.3 °C 30.12in /  1019.9hPa Calm   2.0mph /  3.2km/h 12% 0.00in /  0mm 772.0 W/m2
12:16 72.7 °F /  22.6 °C 19.0 °F /  -7.2 °C 30.12in /  1019.9hPa SE 0.9mph /  1.4km/h 11.0mph /  17.7km/h 13% 0.00in /  0mm 766.0 W/m2
12:22 72.3 °F /  22.4 °C 18.7 °F /  -7.4 °C 30.12in /  1019.9hPa SSW 2.9mph /  4.7km/h 9.0mph /  14.5km/h 13% 0.00in /  0mm 761.0 W/m2
12:28 72.0 °F /  22.2 °C 20.1 °F /  -6.6 °C 30.11in /  1019.5hPa ESE 0.9mph /  1.4km/h 7.0mph /  11.3km/h 14% 0.00in /  0mm 752.0 W/m2
12:34 72.1 °F /  22.3 °C 16.7 °F /  -8.5 °C 30.11in /  1019.5hPa ESE 2.0mph /  3.2km/h 9.0mph /  14.5km/h 12% 0.00in /  0mm 754.0 W/m2
12:40 72.7 °F /  22.6 °C 20.7 °F /  -6.3 °C 30.11in /  1019.5hPa ESE 0.9mph /  1.4km/h 5.0mph /  8km/h 14% 0.00in /  0mm 745.0 W/m2
12:46 72.7 °F /  22.6 °C 20.7 °F /  -6.3 °C 30.10in /  1019.2hPa WSW 2.0mph /  3.2km/h 7.0mph /  11.3km/h 14% 0.00in /  0mm 737.0 W/m2
12:53 72.5 °F /  22.5 °C 22.3 °F /  -5.4 °C 30.10in /  1019.2hPa SSE 4.9mph /  7.9km/h 7.0mph /  11.3km/h 15% 0.00in /  0mm 729.0 W/m2
12:59 72.7 °F /  22.6 °C 19.0 °F /  -7.2 °C 30.09in /  1018.8hPa WSW 0.9mph /  1.4km/h 2.0mph /  3.2km/h 13% 0.00in /  0mm 721.0 W/m2
13:05 72.9 °F /  22.7 °C 20.8 °F /  -6.2 °C 30.09in /  1018.8hPa South 2.0mph /  3.2km/h 10.0mph /  16.1km/h 14% 0.00in /  0mm 710.0 W/m2
13:11 72.9 °F /  22.7 °C 20.8 °F /  -6.2 °C 30.09in /  1018.8hPa ENE 2.0mph /  3.2km/h 6.0mph /  9.7km/h 14% 0.00in /  0mm 705.0 W/m2
13:17 72.9 °F /  22.7 °C 22.5 °F /  -5.3 °C 30.09in /  1018.8hPa SSE 0.9mph /  1.4km/h 8.0mph /  12.9km/h 15% 0.00in /  0mm 693.0 W/m2
13:23 73.2 °F /  22.9 °C 21.2 °F /  -6 °C 30.09in /  1018.8hPa NW 0.9mph /  1.4km/h 4.0mph /  6.4km/h 14% 0.00in /  0mm 682.0 W/m2
13:29 72.9 °F /  22.7 °C 20.8 °F /  -6.2 °C 30.08in /  1018.5hPa SE 4.9mph /  7.9km/h 8.0mph /  12.9km/h 14% 0.00in /  0mm 670.0 W/m2
13:35 72.7 °F /  22.6 °C 20.7 °F /  -6.3 °C 30.08in /  1018.5hPa SSE 0.9mph /  1.4km/h 3.0mph /  4.8km/h 14% 0.00in /  0mm 657.0 W/m2
13:42 72.7 °F /  22.6 °C 22.3 °F /  -5.4 °C 30.08in /  1018.5hPa SE 2.0mph /  3.2km/h 7.0mph /  11.3km/h 15% 0.00in /  0mm 647.0 W/m2
13:48 73.0 °F /  22.8 °C 22.6 °F /  -5.2 °C 30.08in /  1018.5hPa SSE 2.9mph /  4.7km/h 8.0mph /  12.9km/h 15% 0.00in /  0mm 631.0 W/m2
13:54 73.4 °F /  23 °C 21.4 °F /  -5.9 °C 30.07in /  1018.2hPa Calm   3.0mph /  4.8km/h 14% 0.00in /  0mm 621.0 W/m2
14:00 73.6 °F /  23.1 °C 23.0 °F /  -5 °C 30.07in /  1018.2hPa Calm   4.0mph /  6.4km/h 15% 0.00in /  0mm 605.0 W/m2
14:06 73.2 °F /  22.9 °C 22.8 °F /  -5.1 °C 30.07in /  1018.2hPa SE 0.9mph /  1.4km/h 2.0mph /  3.2km/h 15% 0.00in /  0mm 589.0 W/m2
14:12 73.4 °F /  23 °C 23.0 °F /  -5 °C 30.07in /  1018.2hPa Calm   2.0mph /  3.2km/h 15% 0.00in /  0mm 575.0 W/m2
14:18 73.6 °F /  23.1 °C 23.0 °F /  -5 °C 30.06in /  1017.8hPa ESE 2.9mph /  4.7km/h 9.0mph /  14.5km/h 15% 0.00in /  0mm 561.0 W/m2
14:25 73.8 °F /  23.2 °C 23.2 °F /  -4.9 °C 30.07in /  1018.2hPa SSW 4.0mph /  6.4km/h 7.0mph /  11.3km/h 15% 0.00in /  0mm 543.0 W/m2
14:31 73.6 °F /  23.1 °C 21.4 °F /  -5.9 °C 30.06in /  1017.8hPa WSW 2.9mph /  4.7km/h 4.0mph /  6.4km/h 14% 0.00in /  0mm 524.0 W/m2
14:37 73.2 °F /  22.9 °C 21.2 °F /  -6 °C 30.06in /  1017.8hPa Calm   1.0mph /  1.6km/h 14% 0.00in /  0mm 506.0 W/m2
14:43 73.2 °F /  22.9 °C 22.8 °F /  -5.1 °C 30.06in /  1017.8hPa Calm   1.0mph /  1.6km/h 15% 0.00in /  0mm 489.0 W/m2
14:49 73.8 °F /  23.2 °C 23.2 °F /  -4.9 °C 30.06in /  1017.8hPa ENE 2.0mph /  3.2km/h 6.0mph /  9.7km/h 15% 0.00in /  0mm 471.0 W/m2
14:55 73.9 °F /  23.3 °C 21.7 °F /  -5.7 °C 30.06in /  1017.8hPa Calm   4.0mph /  6.4km/h 14% 0.00in /  0mm 454.0 W/m2
15:01 74.5 °F /  23.6 °C 23.7 °F /  -4.6 °C 30.06in /  1017.8hPa SW 4.0mph /  6.4km/h 5.0mph /  8km/h 15% 0.00in /  0mm 434.0 W/m2
15:07 74.1 °F /  23.4 °C 21.9 °F /  -5.6 °C 30.06in /  1017.8hPa Calm   3.0mph /  4.8km/h 14% 0.00in /  0mm 411.0 W/m2
15:14 73.8 °F /  23.2 °C 23.2 °F /  -4.9 °C 30.06in /  1017.8hPa South 0.9mph /  1.4km/h 3.0mph /  4.8km/h 15% 0.00in /  0mm 392.0 W/m2
15:20 73.4 °F /  23 °C 23.0 °F /  -5 °C 30.06in /  1017.8hPa South 4.9mph /  7.9km/h 9.0mph /  14.5km/h 15% 0.00in /  0mm 371.0 W/m2
15:26 73.0 °F /  22.8 °C 24.3 °F /  -4.3 °C 30.06in /  1017.8hPa South 2.0mph /  3.2km/h 8.0mph /  12.9km/h 16% 0.00in /  0mm 350.0 W/m2
15:32 72.7 °F /  22.6 °C 23.9 °F /  -4.5 °C 30.06in /  1017.8hPa SW 0.9mph /  1.4km/h 6.0mph /  9.7km/h 16% 0.00in /  0mm 290.0 W/m2
15:38 72.0 °F /  22.2 °C 23.4 °F /  -4.8 °C 30.06in /  1017.8hPa Calm   5.0mph /  8km/h 16% 0.00in /  0mm 39.0 W/m2
15:44 71.8 °F /  22.1 °C 23.2 °F /  -4.9 °C 30.07in /  1018.2hPa Calm   3.0mph /  4.8km/h 16% 0.00in /  0mm 35.0 W/m2
15:50 71.2 °F /  21.8 °C 22.8 °F /  -5.1 °C 30.06in /  1017.8hPa SSE 2.9mph /  4.7km/h 4.0mph /  6.4km/h 16% 0.00in /  0mm 33.0 W/m2
15:56 71.1 °F /  21.7 °C 22.6 °F /  -5.2 °C 30.06in /  1017.8hPa SE 4.9mph /  7.9km/h 6.0mph /  9.7km/h 16% 0.00in /  0mm 30.0 W/m2
16:03 70.9 °F /  21.6 °C 23.9 °F /  -4.5 °C 30.06in /  1017.8hPa Calm   7.0mph /  11.3km/h 17% 0.00in /  0mm 26.0 W/m2
16:09 70.7 °F /  21.5 °C 23.7 °F /  -4.6 °C 30.07in /  1018.2hPa SE 4.0mph /  6.4km/h 5.0mph /  8km/h 17% 0.00in /  0mm 23.0 W/m2
16:15 70.5 °F /  21.4 °C 23.5 °F /  -4.7 °C 30.07in /  1018.2hPa Calm   2.0mph /  3.2km/h 17% 0.00in /  0mm 21.0 W/m2
16:21 70.2 °F /  21.2 °C 23.4 °F /  -4.8 °C 30.07in /  1018.2hPa ENE 0.9mph /  1.4km/h 7.0mph /  11.3km/h 17% 0.00in /  0mm 23.0 W/m2
16:27 70.0 °F /  21.1 °C 23.2 °F /  -4.9 °C 30.07in /  1018.2hPa East 2.0mph /  3.2km/h 6.0mph /  9.7km/h 17% 0.00in /  0mm 18.0 W/m2
16:33 69.8 °F /  21 °C 24.4 °F /  -4.2 °C 30.07in /  1018.2hPa South 2.9mph /  4.7km/h 3.0mph /  4.8km/h 18% 0.00in /  0mm 28.0 W/m2
16:39 69.4 °F /  20.8 °C 24.1 °F /  -4.4 °C 30.07in /  1018.2hPa Calm   1.0mph /  1.6km/h 18% 0.00in /  0mm 16.0 W/m2
16:45 69.3 °F /  20.7 °C 23.9 °F /  -4.5 °C 30.07in /  1018.2hPa East 2.0mph /  3.2km/h 4.0mph /  6.4km/h 18% 0.00in /  0mm 14.0 W/m2
16:52 68.9 °F /  20.5 °C 23.7 °F /  -4.6 °C 30.08in /  1018.5hPa Calm   1.0mph /  1.6km/h 18% 0.00in /  0mm 12.0 W/m2
16:58 68.4 °F /  20.2 °C 23.2 °F /  -4.9 °C 30.08in /  1018.5hPa Calm   2.0mph /  3.2km/h 18% 0.00in /  0mm 11.0 W/m2
17:04 68.2 °F /  20.1 °C 24.3 °F /  -4.3 °C 30.07in /  1018.2hPa Calm   4.0mph /  6.4km/h 19% 0.00in /  0mm 9.0 W/m2
17:10 67.6 °F /  19.8 °C 23.9 °F /  -4.5 °C 30.08in /  1018.5hPa Calm   4.0mph /  6.4km/h 19% 0.00in /  0mm 7.0 W/m2
17:16 67.1 °F /  19.5 °C 25.9 °F /  -3.4 °C 30.08in /  1018.5hPa Calm   1.0mph /  1.6km/h 21% 0.00in /  0mm 5.0 W/m2
17:22 66.6 °F /  19.2 °C 26.6 °F /  -3 °C 30.08in /  1018.5hPa Calm     22% 0.00in /  0mm 0.0 W/m2
17:28 65.8 °F /  18.8 °C 24.8 °F /  -4 °C 30.08in /  1018.5hPa Calm   1.0mph /  1.6km/h 21% 0.00in /  0mm 0.0 W/m2
17:34 65.1 °F /  18.4 °C 26.4 °F /  -3.1 °C 30.09in /  1018.8hPa Calm     23% 0.00in /  0mm 0.0 W/m2
17:40 64.4 °F /  18 °C 26.8 °F /  -2.9 °C 30.09in /  1018.8hPa Calm     24% 0.00in /  0mm 0.0 W/m2
17:47 63.5 °F /  17.5 °C 26.1 °F /  -3.3 °C 30.09in /  1018.8hPa Calm     24% 0.00in /  0mm 0.0 W/m2
17:53 62.8 °F /  17.1 °C 26.4 °F /  -3.1 °C 30.09in /  1018.8hPa Calm     25% 0.00in /  0mm 0.0 W/m2
17:59 62.1 °F /  16.7 °C 23.9 °F /  -4.5 °C 30.09in /  1018.8hPa Calm     23% 0.00in /  0mm 0.0 W/m2
18:05 61.5 °F /  16.4 °C 25.3 °F /  -3.7 °C 30.10in /  1019.2hPa Calm     25% 0.00in /  0mm 0.0 W/m2
18:11 61.2 °F /  16.2 °C 25.0 °F /  -3.9 °C 30.10in /  1019.2hPa Calm   2.0mph /  3.2km/h 25% 0.00in /  0mm 0.0 W/m2
18:17 60.6 °F /  15.9 °C 25.5 °F /  -3.6 °C 30.10in /  1019.2hPa Calm   1.0mph /  1.6km/h 26% 0.00in /  0mm 0.0 W/m2
18:46 57.9 °F /  14.4 °C 25.0 °F /  -3.9 °C 30.12in /  1019.9hPa Calm     28% 0.00in /  0mm 0.0 W/m2
19:06 56.5 °F /  13.6 °C 25.3 °F /  -3.7 °C 30.12in /  1019.9hPa Calm     30% 0.00in /  0mm 0.0 W/m2
19:12 55.9 °F /  13.3 °C 25.7 °F /  -3.5 °C 30.12in /  1019.9hPa Calm     31% 0.00in /  0mm 0.0 W/m2
19:19 55.6 °F /  13.1 °C 25.3 °F /  -3.7 °C 30.13in /  1020.2hPa Calm     31% 0.00in /  0mm 0.0 W/m2
19:25 55.2 °F /  12.9 °C 25.9 °F /  -3.4 °C 30.12in /  1019.9hPa Calm     32% 0.00in /  0mm 0.0 W/m2
19:29 55.0 °F /  12.8 °C 25.7 °F /  -3.5 °C 30.12in /  1019.9hPa Calm   1.0mph /  1.6km/h 32% 0.00in /  0mm 0.0 W/m2
19:35 54.9 °F /  12.7 °C 25.5 °F /  -3.6 °C 30.12in /  1019.9hPa Calm   4.0mph /  6.4km/h 32% 0.00in /  0mm 0.0 W/m2
19:41 55.0 °F /  12.8 °C 25.7 °F /  -3.5 °C 30.12in /  1019.9hPa SSE 0.9mph /  1.4km/h 2.0mph /  3.2km/h 32% 0.00in /  0mm 0.0 W/m2
19:43 55.0 °F /  12.8 °C 25.7 °F /  -3.5 °C 30.12in /  1019.9hPa Calm   2.0mph /  3.2km/h 32% 0.00in /  0mm 0.0 W/m2
19:51 55.0 °F /  12.8 °C 25.7 °F /  -3.5 °C 30.13in /  1020.2hPa Calm   1.0mph /  1.6km/h 32% 0.00in /  0mm 0.0 W/m2
20:01 54.9 °F /  12.7 °C 25.5 °F /  -3.6 °C 30.13in /  1020.2hPa Calm     32% 0.00in /  0mm 0.0 W/m2
20:07 54.7 °F /  12.6 °C 25.3 °F /  -3.7 °C 30.13in /  1020.2hPa Calm     32% 0.00in /  0mm 0.0 W/m2
20:14 54.3 °F /  12.4 °C 25.9 °F /  -3.4 °C 30.14in /  1020.5hPa Calm     33% 0.00in /  0mm 0.0 W/m2
20:20 54.0 °F /  12.2 °C 26.2 °F /  -3.2 °C 30.14in /  1020.5hPa Calm     34% 0.00in /  0mm 0.0 W/m2
20:26 53.8 °F /  12.1 °C 26.8 °F /  -2.9 °C 30.14in /  1020.5hPa Calm     35% 0.00in /  0mm 0.0 W/m2
20:32 53.2 °F /  11.8 °C 27.0 °F /  -2.8 °C 30.13in /  1020.2hPa Calm     36% 0.00in /  0mm 0.0 W/m2
20:38 52.9 °F /  11.6 °C 26.6 °F /  -3 °C 30.14in /  1020.5hPa Calm     36% 0.00in /  0mm 0.0 W/m2
20:44 52.5 °F /  11.4 °C 26.2 °F /  -3.2 °C 30.14in /  1020.5hPa Calm     36% 0.00in /  0mm 0.0 W/m2
20:50 52.3 °F /  11.3 °C 26.8 °F /  -2.9 °C 30.14in /  1020.5hPa Calm     37% 0.00in /  0mm 0.0 W/m2
20:57 52.2 °F /  11.2 °C 26.6 °F /  -3 °C 30.14in /  1020.5hPa Calm     37% 0.00in /  0mm 0.0 W/m2
21:03 52.2 °F /  11.2 °C 26.6 °F /  -3 °C 30.14in /  1020.5hPa Calm     37% 0.00in /  0mm 0.0 W/m2
21:10 52.0 °F /  11.1 °C 26.6 °F /  -3 °C 30.14in /  1020.5hPa Calm     37% 0.00in /  0mm 0.0 W/m2
21:15 51.8 °F /  11 °C 26.4 °F /  -3.1 °C 30.14in /  1020.5hPa Calm     37% 0.00in /  0mm 0.0 W/m2
21:21 51.6 °F /  10.9 °C 26.8 °F /  -2.9 °C 30.14in /  1020.5hPa Calm     38% 0.00in /  0mm 0.0 W/m2
21:27 51.4 °F /  10.8 °C 26.6 °F /  -3 °C 30.14in /  1020.5hPa Calm     38% 0.00in /  0mm 0.0 W/m2
21:33 51.3 °F /  10.7 °C 26.6 °F /  -3 °C 30.14in /  1020.5hPa Calm     38% 0.00in /  0mm 0.0 W/m2
21:40 51.3 °F /  10.7 °C 26.6 °F /  -3 °C 30.14in /  1020.5hPa Calm     38% 0.00in /  0mm 0.0 W/m2
21:46 51.3 °F /  10.7 °C 26.6 °F /  -3 °C 30.14in /  1020.5hPa Calm     38% 0.00in /  0mm 0.0 W/m2
21:52 51.3 °F /  10.7 °C 27.1 °F /  -2.7 °C 30.14in /  1020.5hPa Calm   1.0mph /  1.6km/h 39% 0.00in /  0mm 0.0 W/m2
21:58 51.3 °F /  10.7 °C 27.1 °F /  -2.7 °C 30.14in /  1020.5hPa Calm   1.0mph /  1.6km/h 39% 0.00in /  0mm 0.0 W/m2
22:04 51.4 °F /  10.8 °C 27.3 °F /  -2.6 °C 30.14in /  1020.5hPa Calm   1.0mph /  1.6km/h 39% 0.00in /  0mm 0.0 W/m2
22:15 51.4 °F /  10.8 °C 27.3 °F /  -2.6 °C 30.14in /  1020.5hPa Calm     39% 0.00in /  0mm 0.0 W/m2
22:20 51.4 °F /  10.8 °C 27.9 °F /  -2.3 °C 30.13in /  1020.2hPa Calm     40% 0.00in /  0mm 0.0 W/m2
22:25 51.4 °F /  10.8 °C 27.9 °F /  -2.3 °C 30.14in /  1020.5hPa Calm     40% 0.00in /  0mm 0.0 W/m2
22:31 51.3 °F /  10.7 °C 27.7 °F /  -2.4 °C 30.13in /  1020.2hPa Calm     40% 0.00in /  0mm 0.0 W/m2
22:37 51.1 °F /  10.6 °C 28.2 °F /  -2.1 °C 30.13in /  1020.2hPa Calm     41% 0.00in /  0mm 0.0 W/m2
22:43 50.7 °F /  10.4 °C 27.9 °F /  -2.3 °C 30.13in /  1020.2hPa Calm     41% 0.00in /  0mm 0.0 W/m2
22:49 50.5 °F /  10.3 °C 28.2 °F /  -2.1 °C 30.14in /  1020.5hPa Calm     42% 0.00in /  0mm 0.0 W/m2
22:55 50.2 °F /  10.1 °C 28.0 °F /  -2.2 °C 30.14in /  1020.5hPa Calm     42% 0.00in /  0mm 0.0 W/m2
23:01 49.8 °F /  9.9 °C 28.2 °F /  -2.1 °C 30.14in /  1020.5hPa Calm     43% 0.00in /  0mm 0.0 W/m2
23:08 49.6 °F /  9.8 °C 28.6 °F /  -1.9 °C 30.14in /  1020.5hPa Calm     44% 0.00in /  0mm 0.0 W/m2
23:14 49.5 °F /  9.7 °C 27.9 °F /  -2.3 °C 30.14in /  1020.5hPa Calm     43% 0.00in /  0mm 0.0 W/m2
23:20 49.3 °F /  9.6 °C 28.8 °F /  -1.8 °C 30.14in /  1020.5hPa Calm     45% 0.00in /  0mm 0.0 W/m2
23:26 48.9 °F /  9.4 °C 29.1 °F /  -1.6 °C 30.14in /  1020.5hPa Calm     46% 0.00in /  0mm 0.0 W/m2
23:32 48.7 °F /  9.3 °C 28.9 °F /  -1.7 °C 30.14in /  1020.5hPa Calm     46% 0.00in /  0mm 0.0 W/m2
23:38 48.7 °F /  9.3 °C 28.9 °F /  -1.7 °C 30.13in /  1020.2hPa East 2.0mph /  3.2km/h 2.0mph /  3.2km/h 46% 0.00in /  0mm 0.0 W/m2
23:44 48.7 °F /  9.3 °C 28.9 °F /  -1.7 °C 30.13in /  1020.2hPa Calm   2.0mph /  3.2km/h 46% 0.00in /  0mm 0.0 W/m2
23:50 48.9 °F /  9.4 °C 29.1 °F /  -1.6 °C 30.13in /  1020.2hPa Calm   1.0mph /  1.6km/h 46% 0.00in /  0mm 0.0 W/m2
23:56 49.1 °F /  9.5 °C 29.1 °F /  -1.6 °C 30.13in /  1020.2hPa Calm   1.0mph /  1.6km/h 46% 0.00in /  0mm 0.0 W/m2
Olympia, Windhoek, Namibia
Compliments of Weather Underground - 3 mb